Time;durP1;ratioP1;P1;durP2;ratioP2;P2;SDS_P1;SDS_P2;PMS_P1;PMS_P2;Temp;Humidity;BMP_temperature;BMP_pressure;BME280_temperature;BME280_humidity;BME280_pressure;Samples;Min_cycle;Max_cycle;Signal;HPM_P1;HPM_P2
2021/03/26 00:00:46;;;;;;;14.50;9.60;;;5.10;57.60;;;;;;5026383;28;20531;-60
2021/03/26 00:03:18;;;;;;;15.45;9.70;;;5.10;57.60;;;;;;5016541;28;20477;-60
2021/03/26 00:05:45;;;;;;;;;;;5.00;57.50;;;;;;5030372;28;20018;-59
2021/03/26 00:08:12;;;;;;;13.82;8.98;;;4.90;57.40;;;;;;5027486;28;19913;-60
2021/03/26 00:10:38;;;;;;;14.70;9.55;;;4.90;57.60;;;;;;5021814;28;20022;-58
2021/03/26 00:13:05;;;;;;;14.43;9.30;;;4.90;57.70;;;;;;5017680;28;20022;-60
2021/03/26 00:15:32;;;;;;;13.25;9.43;;;4.90;57.80;;;;;;5025978;28;20032;-57
2021/03/26 00:17:58;;;;;;;12.50;9.00;;;4.80;57.80;;;;;;5028767;28;20066;-59
2021/03/26 00:20:24;;;;;;;14.13;9.68;;;4.80;57.80;;;;;;5019054;28;20022;-59
2021/03/26 00:22:50;;;;;;;14.25;9.02;;;4.80;57.90;;;;;;5021359;28;20041;-59
2021/03/26 00:25:16;;;;;;;13.98;9.38;;;4.80;57.90;;;;;;5019193;28;20469;-60
2021/03/26 00:27:41;;;;;;;15.48;9.90;;;4.80;58.00;;;;;;5028404;28;20021;-60
2021/03/26 00:30:09;;;;;;;15.88;10.38;;;4.80;57.90;;;;;;5021560;28;20022;-60
2021/03/26 00:32:36;;;;;;;15.10;9.85;;;4.70;57.90;;;;;;5028233;28;20034;-60
2021/03/26 00:35:04;;;;;;;15.52;10.38;;;4.70;57.90;;;;;;5015566;28;20461;-60
2021/03/26 00:37:29;;;;;;;19.35;11.05;;;4.70;57.90;;;;;;5029471;28;20030;-60
2021/03/26 00:39:55;;;;;;;17.90;11.25;;;4.70;57.90;;;;;;5022492;28;20480;-59
2021/03/26 00:42:21;;;;;;;15.38;10.55;;;4.70;57.90;;;;;;5023406;28;20393;-59
2021/03/26 00:44:46;;;;;;;15.63;10.52;;;4.70;58.10;;;;;;5031756;28;20029;-59
2021/03/26 00:47:12;;;;;;;16.88;10.52;;;4.70;58.00;;;;;;5021490;28;20362;-59
2021/03/26 00:49:38;;;;;;;15.35;10.90;;;4.70;58.20;;;;;;5027968;28;20061;-60
2021/03/26 00:52:06;;;;;;;18.23;11.35;;;4.70;58.10;;;;;;5022062;28;20425;-56
2021/03/26 00:54:32;;;;;;;15.93;10.52;;;4.70;58.10;;;;;;5014264;28;20117;-60
2021/03/26 00:56:58;;;;;;;14.73;10.38;;;4.70;58.20;;;;;;5019108;28;20521;-59
2021/03/26 00:59:23;;;;;;;16.00;10.57;;;4.70;58.30;;;;;;5029793;28;20033;-60
2021/03/26 01:01:49;;;;;;;16.00;10.80;;;4.60;58.40;;;;;;5031204;28;20022;-59
2021/03/26 01:04:15;;;;;;;16.35;10.90;;;4.60;58.20;;;;;;5031348;28;20096;-59
2021/03/26 01:06:41;;;;;;;16.60;11.25;;;4.60;58.30;;;;;;5033594;28;20028;-59
2021/03/26 01:09:07;;;;;;;15.75;10.93;;;4.60;58.40;;;;;;5032691;28;20076;-59
2021/03/26 01:11:37;;;;;;;17.70;11.40;;;4.60;58.30;;;;;;5032630;28;20034;-59
2021/03/26 01:14:07;;;;;;;15.38;10.30;;;4.60;58.50;;;;;;5025945;28;20104;-60
2021/03/26 01:16:32;;;;;;;17.75;11.75;;;4.60;58.50;;;;;;5034612;28;20021;-59
2021/03/26 01:18:58;;;;;;;17.13;10.77;;;4.50;58.50;;;;;;5020739;28;20056;-60
2021/03/26 01:21:29;;;;;;;16.00;11.43;;;4.50;58.50;;;;;;5021488;28;20515;-58
2021/03/26 01:23:56;;;;;;;15.75;10.32;;;4.50;58.60;;;;;;5021896;28;20026;-59
2021/03/26 01:26:23;;;;;;;15.95;10.20;;;4.40;58.60;;;;;;5025409;28;20496;-58
2021/03/26 01:28:49;;;;;;;18.35;10.65;;;4.50;58.60;;;;;;5030722;28;20030;-59
2021/03/26 01:31:15;;;;;;;16.13;11.25;;;4.50;58.60;;;;;;5031580;28;20020;-60
2021/03/26 01:33:41;;;;;;;15.25;10.38;;;4.40;58.50;;;;;;5028240;28;20480;-59
2021/03/26 01:36:08;;;;;;;15.35;10.35;;;4.40;58.60;;;;;;5024873;28;20105;-58
2021/03/26 01:38:34;;;;;;;17.40;12.10;;;4.40;58.70;;;;;;5025961;28;20041;-60
2021/03/26 01:41:13;;;;;;;20.70;12.45;;;4.40;58.80;;;;;;5029892;28;20049;-60
2021/03/26 01:43:40;;;;;;;18.10;12.02;;;4.40;58.80;;;;;;5018752;28;20469;-59
2021/03/26 01:46:08;;;;;;;17.83;11.85;;;4.40;58.90;;;;;;5021724;28;20045;-60
2021/03/26 01:48:50;;;;;;;17.50;11.43;;;4.40;58.80;;;;;;5025716;28;20042;-57
2021/03/26 01:51:31;;;;;;;15.43;10.63;;;4.30;58.90;;;;;;5033218;28;20071;-60
2021/03/26 01:53:58;;;;;;;19.63;11.90;;;4.30;58.90;;;;;;5026272;28;20473;-59
2021/03/26 01:56:25;;;;;;;17.38;11.82;;;4.30;58.90;;;;;;5032788;28;20026;-60
2021/03/26 01:58:50;;;;;;;18.38;11.85;;;4.30;58.90;;;;;;5029192;28;20021;-58
2021/03/26 02:01:23;;;;;;;17.02;11.93;;;4.30;59.00;;;;;;5024906;28;20025;-58
2021/03/26 02:03:52;;;;;;;19.65;12.35;;;4.30;59.10;;;;;;5025561;28;20053;-60
2021/03/26 02:06:28;;;;;;;16.13;10.65;;;4.30;59.10;;;;;;5031905;28;20036;-60
2021/03/26 02:09:19;;;;;;;15.65;11.38;;;4.30;59.10;;;;;;5027473;28;20038;-60
2021/03/26 02:12:25;;;;;;;16.85;11.27;;;4.20;59.10;;;;;;5022337;28;20405;-60
2021/03/26 02:14:55;;;;;;;15.23;10.40;;;4.20;59.20;;;;;;5022406;28;20030;-60
2021/03/26 02:17:26;;;;;;;16.50;11.02;;;4.20;59.30;;;;;;5021174;28;20030;-57
2021/03/26 02:19:55;;;;;;;17.30;10.52;;;4.20;59.20;;;;;;5020832;28;20029;-60
2021/03/26 02:22:23;;;;;;;17.35;11.13;;;4.20;59.10;;;;;;5022952;28;20037;-60
2021/03/26 02:24:51;;;;;;;20.00;12.32;;;4.20;59.20;;;;;;5023374;28;20033;-60
2021/03/26 02:27:30;;;;;;;18.83;11.85;;;4.20;59.30;;;;;;5022249;28;20052;-60
2021/03/26 02:29:57;;;;;;;18.15;11.40;;;4.20;59.30;;;;;;5030577;28;20477;-59
2021/03/26 02:32:30;;;;;;;17.08;11.32;;;4.20;59.00;;;;;;5027250;28;20021;-58
2021/03/26 02:35:13;;;;;;;20.40;11.32;;;4.20;59.60;;;;;;5026185;28;20469;-60
2021/03/26 02:37:47;;;;;;;18.52;11.15;;;4.20;59.20;;;;;;5020411;28;20026;-60
2021/03/26 02:40:25;;;;;;;19.48;11.77;;;4.20;59.20;;;;;;5023876;28;20024;-60
2021/03/26 02:42:58;;;;;;;17.45;11.10;;;4.20;59.10;;;;;;5015552;28;20401;-58
2021/03/26 02:45:30;;;;;;;18.67;12.48;;;4.20;59.10;;;;;;5021853;28;20782;-60
2021/03/26 02:48:00;;;;;;;15.07;11.25;;;4.20;59.10;;;;;;5023679;28;20107;-59
2021/03/26 02:50:34;;;;;;;18.00;12.30;;;4.20;59.30;;;;;;5021339;28;20044;-60
2021/03/26 02:53:15;;;;;;;19.45;12.98;;;4.20;59.20;;;;;;5026295;28;20216;-60
2021/03/26 02:56:18;;;;;;;19.30;12.15;;;4.20;59.10;;;;;;5029054;28;20022;-60
2021/03/26 02:58:53;;;;;;;15.82;11.20;;;4.20;59.10;;;;;;5025146;28;20461;-60
2021/03/26 03:01:24;;;;;;;16.95;11.23;;;4.20;59.20;;;;;;5023906;28;20080;-59
2021/03/26 03:03:55;;;;;;;18.13;11.45;;;4.20;59.20;;;;;;5017701;28;20037;-60
2021/03/26 03:06:30;;;;;;;18.38;11.55;;;4.20;59.30;;;;;;5024638;28;20037;-60
2021/03/26 03:08:57;;;;;;;18.02;11.60;;;4.20;59.30;;;;;;5025043;28;20108;-59
2021/03/26 03:11:35;;;;;;;17.50;11.95;;;4.10;59.10;;;;;;5028422;28;20041;-59
2021/03/26 03:14:21;;;;;;;18.85;12.05;;;4.10;59.20;;;;;;5025501;28;20611;-60
2021/03/26 03:17:04;;;;;;;17.15;12.25;;;4.20;59.10;;;;;;5029090;28;20078;-60
2021/03/26 03:19:40;;;;;;;17.00;11.90;;;4.10;59.00;;;;;;5020770;28;20130;-58
2021/03/26 03:22:32;;;;;;;17.70;11.75;;;4.10;59.80;;;;;;5028841;28;20495;-60
2021/03/26 03:25:00;;;;;;;;;;;4.10;59.20;;;;;;5020371;28;20028;-60
2021/03/26 03:27:46;;;;;;;18.27;11.25;;;4.00;59.00;;;;;;5024156;28;20292;-59
2021/03/26 03:30:24;;;;;;;18.90;11.43;;;4.00;59.20;;;;;;5014795;28;20067;-60
2021/03/26 03:33:11;;;;;;;20.20;13.93;;;4.00;59.20;;;;;;5027821;28;20377;-60
2021/03/26 03:35:57;;;;;;;18.65;12.23;;;4.00;59.20;;;;;;5013796;28;20021;-60
2021/03/26 03:38:48;;;;;;;19.80;12.95;;;4.00;59.20;;;;;;5004171;28;20405;-58
2021/03/26 03:41:28;;;;;;;21.20;12.77;;;4.00;59.20;;;;;;5028698;28;20440;-60
2021/03/26 03:44:16;;;;;;;20.40;12.77;;;4.00;59.30;;;;;;5022097;28;20017;-60
2021/03/26 03:46:51;;;;;;;16.65;12.13;;;4.00;58.90;;;;;;5016709;28;20030;-58
2021/03/26 03:49:29;;;;;;;18.63;12.90;;;4.00;59.10;;;;;;5013941;28;20052;-59
2021/03/26 03:51:59;;;;;;;21.48;13.70;;;4.00;59.70;;;;;;5013037;28;20029;-58
2021/03/26 03:54:30;;;;;;;18.85;13.70;;;4.00;59.10;;;;;;5022698;28;20028;-60
2021/03/26 03:57:15;;;;;;;19.40;13.13;;;4.00;59.10;;;;;;5023280;28;20029;-59
2021/03/26 04:00:19;;;;;;;20.40;13.70;;;4.10;59.20;;;;;;5012990;28;20036;-59
2021/03/26 04:03:17;;;;;;;20.17;13.35;;;4.00;59.10;;;;;;5016583;28;20037;-59
2021/03/26 04:05:57;;;;;;;18.35;12.57;;;4.00;59.20;;;;;;5031789;28;20068;-60
2021/03/26 04:08:31;;;;;;;19.92;13.75;;;4.10;59.10;;;;;;5035330;28;20104;-58
2021/03/26 04:11:24;;;;;;;18.88;12.85;;;4.10;59.10;;;;;;5030921;28;20021;-59
2021/03/26 04:14:05;;;;;;;23.48;14.85;;;4.10;59.00;;;;;;5033835;28;20478;-59
2021/03/26 04:16:30;;;;;;;22.92;13.38;;;4.20;59.10;;;;;;5035329;28;20030;-58
2021/03/26 04:19:33;;;;;;;23.52;14.75;;;4.20;59.00;;;;;;5022509;28;20018;-60
2021/03/26 04:22:08;;;;;;;18.05;12.82;;;4.30;58.70;;;;;;5022304;28;20041;-59
2021/03/26 04:24:41;;;;;;;20.48;14.55;;;4.30;58.60;;;;;;5021286;28;20076;-58
2021/03/26 04:27:16;;;;;;;21.63;13.82;;;4.40;58.70;;;;;;5014353;28;20113;-60
2021/03/26 04:30:04;;;;;;;21.45;14.32;;;4.50;58.60;;;;;;5026046;28;20033;-60
2021/03/26 04:32:30;;;;;;;21.73;13.48;;;4.50;58.60;;;;;;5028199;28;20014;-60
2021/03/26 04:34:56;;;;;;;18.85;12.60;;;4.60;58.60;;;;;;5031668;28;20358;-60
2021/03/26 04:37:27;;;;;;;21.85;13.57;;;4.70;58.70;;;;;;5027276;28;20033;-58
2021/03/26 04:40:02;;;;;;;19.25;12.75;;;4.70;58.60;;;;;;5028912;28;20168;-60
2021/03/26 04:43:01;;;;;;;18.35;13.00;;;4.80;58.60;;;;;;5019799;28;20041;-59
2021/03/26 04:45:33;;;;;;;19.13;13.75;;;4.80;58.60;;;;;;5024018;28;20057;-58
2021/03/26 04:48:01;;;;;;;19.67;13.82;;;4.90;58.90;;;;;;5028672;28;20045;-59
2021/03/26 04:50:36;;;;;;;17.85;12.77;;;5.00;58.90;;;;;;5017990;28;20116;-59
2021/03/26 04:53:14;;;;;;;20.60;12.52;;;5.10;59.30;;;;;;5021094;28;20465;-60
2021/03/26 04:55:48;;;;;;;18.30;12.75;;;5.20;59.80;;;;;;5021935;28;20029;-59
2021/03/26 04:58:19;;;;;;;20.80;13.30;;;5.30;59.60;;;;;;5025727;28;20101;-58
2021/03/26 05:00:59;;;;;;;18.60;13.10;;;5.50;59.70;;;;;;5017370;28;20509;-60
2021/03/26 05:03:39;;;;;;;18.40;13.73;;;5.70;59.50;;;;;;5022276;28;20044;-58
2021/03/26 05:06:27;;;;;;;21.77;14.02;;;5.80;59.10;;;;;;5027739;28;20484;-59
2021/03/26 05:09:08;;;;;;;21.00;13.65;;;6.00;58.90;;;;;;5025003;28;20092;-56
2021/03/26 05:11:39;;;;;;;22.15;15.25;;;6.20;58.60;;;;;;5023125;28;20079;-59
2021/03/26 05:14:13;;;;;;;20.75;13.88;;;6.50;58.30;;;;;;5021098;28;20113;-60
2021/03/26 05:16:44;;;;;;;20.15;13.93;;;6.70;57.90;;;;;;5026142;28;20049;-59
2021/03/26 05:19:15;;;;;;;;;;;7.10;57.60;;;;;;5022975;28;20029;-57
2021/03/26 05:21:53;;;;;;;20.48;14.00;;;7.30;57.20;;;;;;5032882;28;20011;-60
2021/03/26 05:24:27;;;;;;;21.30;14.82;;;7.70;57.30;;;;;;5017802;28;20067;-60
2021/03/26 05:26:53;;;;;;;22.23;14.73;;;8.20;56.50;;;;;;5027288;28;20025;-59
2021/03/26 05:29:21;;;;;;;22.77;15.65;;;8.60;55.60;;;;;;5030353;28;20055;-59
2021/03/26 05:31:59;;;;;;;21.58;15.30;;;8.90;54.90;;;;;;5029469;28;20057;-59
2021/03/26 05:34:42;;;;;;;21.67;14.82;;;9.20;54.50;;;;;;5025833;28;20096;-59
2021/03/26 05:37:18;;;;;;;22.15;15.70;;;9.50;54.20;;;;;;5025722;28;20034;-55
2021/03/26 05:39:48;;;;;;;24.00;16.45;;;9.90;53.80;;;;;;5027335;28;20029;-60
2021/03/26 05:42:35;;;;;;;19.70;14.95;;;10.20;53.00;;;;;;5025573;28;20040;-57
2021/03/26 05:45:19;;;;;;;21.88;14.93;;;10.40;52.70;;;;;;5026985;28;20504;-58
2021/03/26 05:48:30;;;;;;;21.08;14.73;;;10.50;52.20;;;;;;5017069;28;20053;-60
2021/03/26 05:51:21;;;;;;;22.02;15.18;;;10.50;51.40;;;;;;5017716;28;20038;-60
2021/03/26 05:53:47;;;;;;;19.33;13.98;;;10.30;51.40;;;;;;5025327;28;20026;-57
2021/03/26 05:56:33;;;;;;;20.67;13.95;;;10.40;51.90;;;;;;5029298;28;20087;-60
2021/03/26 05:59:11;;;;;;;18.60;13.55;;;10.60;51.80;;;;;;5028271;28;20381;-59
2021/03/26 06:02:19;;;;;;;19.05;13.80;;;10.90;51.60;;;;;;5017225;28;20021;-58
2021/03/26 06:04:58;;;;;;;22.98;14.45;;;11.30;51.00;;;;;;5024586;28;20037;-58
2021/03/26 06:07:43;;;;;;;18.77;14.13;;;11.50;50.40;;;;;;5018297;28;20056;-58
2021/03/26 06:10:51;;;;;;;17.75;13.05;;;11.80;49.60;;;;;;5014017;28;20033;-59
2021/03/26 06:13:41;;;;;;;19.73;14.50;;;12.00;48.80;;;;;;5028515;28;20061;-58
2021/03/26 06:16:44;;;;;;;22.33;14.50;;;12.10;47.80;;;;;;5035632;28;20025;-57
2021/03/26 06:19:42;;;;;;;19.42;13.52;;;11.90;47.60;;;;;;5017530;28;20120;-58
2021/03/26 06:22:30;;;;;;;22.65;14.55;;;11.40;48.40;;;;;;5025179;28;20042;-58
2021/03/26 06:25:31;;;;;;;20.83;13.88;;;10.90;48.30;;;;;;5019794;28;20484;-60
2021/03/26 06:28:23;;;;;;;22.95;14.60;;;10.30;49.20;;;;;;5038646;28;20029;-60
2021/03/26 06:31:01;;;;;;;20.00;14.07;;;9.90;49.90;;;;;;5027315;28;20538;-59
2021/03/26 06:34:09;;;;;;;19.75;14.70;;;9.50;50.60;;;;;;5024109;28;20048;-57
2021/03/26 06:37:08;;;;;;;18.77;13.55;;;9.20;51.00;;;;;;5015025;28;20373;-58
2021/03/26 06:39:57;;;;;;;17.75;12.93;;;9.00;52.10;;;;;;5018839;28;20033;-59
2021/03/26 06:42:50;;;;;;;20.70;14.13;;;8.90;51.90;;;;;;5021811;28;20523;-61
2021/03/26 06:45:55;;;;;;;22.30;13.93;;;8.70;52.10;;;;;;5014986;28;20195;-59
2021/03/26 06:48:25;;;;;;;22.67;14.43;;;8.60;52.40;;;;;;5011988;28;20091;-58
2021/03/26 06:51:17;;;;;;;20.15;13.77;;;8.50;52.80;;;;;;5015927;28;20154;-59
2021/03/26 06:53:51;;;;;;;20.23;13.85;;;8.50;52.80;;;;;;5012803;28;20018;-59
2021/03/26 06:56:20;;;;;;;19.88;13.75;;;8.50;53.10;;;;;;5008533;28;20042;-58
2021/03/26 06:59:10;;;;;;;22.27;15.00;;;8.50;53.30;;;;;;5008648;28;20041;-58
2021/03/26 07:02:12;;;;;;;22.17;13.73;;;8.50;53.30;;;;;;5010280;28;20420;-61
2021/03/26 07:04:43;;;;;;;;;;;8.50;53.40;;;;;;5035794;28;20041;-58
2021/03/26 07:07:27;;;;;;;20.70;12.90;;;8.40;53.40;;;;;;5017110;28;19913;-61
2021/03/26 07:10:10;;;;;;;21.60;14.32;;;8.50;53.60;;;;;;5006465;28;20433;-58
2021/03/26 07:12:47;;;;;;;21.27;14.95;;;8.50;53.70;;;;;;5005926;28;20030;-58
2021/03/26 07:15:26;;;;;;;20.15;14.80;;;8.50;53.70;;;;;;5006774;28;20561;-59
2021/03/26 07:18:13;;;;;;;19.60;14.05;;;8.50;53.50;;;;;;5006752;28;20175;-58
2021/03/26 07:20:54;;;;;;;19.13;13.40;;;8.50;53.60;;;;;;5007888;28;20461;-59
2021/03/26 07:23:47;;;;;;;19.13;14.10;;;8.50;53.80;;;;;;5003967;28;20040;-58
2021/03/26 07:26:40;;;;;;;19.48;13.10;;;8.50;53.90;;;;;;5025869;28;20034;-59
2021/03/26 07:29:38;;;;;;;18.35;13.93;;;8.50;53.70;;;;;;5007301;28;20551;-59
2021/03/26 07:32:22;;;;;;;18.73;12.60;;;8.50;54.00;;;;;;5002317;28;20030;-57
2021/03/26 07:35:06;;;;;;;21.20;13.18;;;8.60;54.10;;;;;;5005912;28;20058;-59
2021/03/26 07:37:32;;;;;;;19.67;12.50;;;8.60;53.90;;;;;;5004161;28;20022;-59
2021/03/26 07:40:22;;;;;;;20.30;13.63;;;8.60;54.00;;;;;;5007760;28;20025;-60
2021/03/26 07:43:20;;;;;;;17.95;12.73;;;8.60;53.80;;;;;;5012534;28;20101;-58
2021/03/26 07:46:27;;;;;;;18.20;12.65;;;8.70;53.70;;;;;;5001582;28;20099;-59
2021/03/26 07:49:25;;;;;;;18.02;12.85;;;8.70;53.60;;;;;;4988528;28;20069;-60
2021/03/26 07:52:29;;;;;;;16.02;12.70;;;8.70;53.30;;;;;;5003519;28;20428;-59
2021/03/26 07:55:20;;;;;;;16.95;12.43;;;8.70;53.10;;;;;;5012068;28;20026;-59
2021/03/26 07:57:49;;;;;;;17.63;12.43;;;8.70;53.20;;;;;;5003830;28;20121;-60
2021/03/26 08:00:24;;;;;;;18.38;12.43;;;8.70;53.10;;;;;;5001078;28;20107;-60
2021/03/26 08:03:31;;;;;;;18.52;12.48;;;8.70;53.20;;;;;;4998104;28;22536;-60
2021/03/26 08:06:35;;;;;;;18.10;12.05;;;8.70;53.10;;;;;;5004008;28;20044;-59
2021/03/26 08:09:04;;;;;;;17.30;12.02;;;8.70;53.10;;;;;;5002612;28;20038;-59
2021/03/26 08:11:51;;;;;;;18.08;12.07;;;8.70;53.00;;;;;;5009466;28;20052;-60
2021/03/26 08:14:40;;;;;;;15.13;11.70;;;8.70;52.90;;;;;;5004600;28;20033;-59
2021/03/26 08:17:33;;;;;;;16.95;11.23;;;8.70;53.00;;;;;;5004673;28;20038;-59
2021/03/26 08:20:29;;;;;;;16.63;11.40;;;8.70;52.80;;;;;;5006048;28;20034;-60
2021/03/26 08:23:18;;;;;;;18.95;12.20;;;8.70;52.80;;;;;;5000281;28;20036;-60
2021/03/26 08:25:58;;;;;;;18.00;12.02;;;8.70;52.60;;;;;;5008751;28;20068;-59
2021/03/26 08:28:27;;;;;;;16.27;11.45;;;8.70;52.50;;;;;;4997698;28;20034;-59
2021/03/26 08:31:11;;;;;;;16.25;11.35;;;8.80;52.40;;;;;;5005165;28;20385;-60
2021/03/26 08:34:00;;;;;;;14.65;10.27;;;8.80;52.20;;;;;;5002616;28;20037;-59
2021/03/26 08:36:31;;;;;;;14.90;10.80;;;8.80;52.00;;;;;;5006222;28;20040;-57
2021/03/26 08:39:28;;;;;;;15.20;10.73;;;8.90;51.90;;;;;;5002048;28;20404;-58
2021/03/26 08:41:58;;;;;;;12.77;9.15;;;8.90;51.60;;;;;;5008312;28;20042;-57
2021/03/26 08:44:26;;;;;;;17.73;11.55;;;8.90;51.50;;;;;;5002695;28;20555;-58
2021/03/26 08:46:54;;;;;;;16.00;10.85;;;9.00;51.50;;;;;;5002674;28;20030;-57
2021/03/26 08:49:23;;;;;;;16.60;11.32;;;9.00;51.50;;;;;;5004285;28;20133;-58
2021/03/26 08:52:24;;;;;;;14.38;10.52;;;9.00;51.50;;;;;;5006019;28;20033;-60
2021/03/26 08:55:08;;;;;;;14.57;9.45;;;9.10;51.30;;;;;;4999902;28;20044;-58
2021/03/26 08:57:57;;;;;;;14.27;9.23;;;9.10;51.30;;;;;;4995864;28;20492;-58
2021/03/26 09:00:44;;;;;;;13.40;8.93;;;9.10;51.30;;;;;;5003772;28;20370;-60
2021/03/26 09:03:31;;;;;;;11.27;8.50;;;9.20;51.20;;;;;;5008479;28;20083;-58
2021/03/26 09:06:21;;;;;;;12.35;8.70;;;9.20;51.00;;;;;;5004546;28;20563;-61
2021/03/26 09:09:24;;;;;;;11.43;8.23;;;9.30;51.10;;;;;;5003735;28;20035;-58
2021/03/26 09:12:20;;;;;;;13.32;9.23;;;9.30;50.90;;;;;;5005774;28;20038;-58
2021/03/26 09:15:11;;;;;;;13.13;8.65;;;9.40;50.90;;;;;;5004741;28;20065;-58
2021/03/26 09:17:59;;;;;;;12.35;8.60;;;9.40;51.00;;;;;;5002738;28;20419;-58
2021/03/26 09:20:37;;;;;;;14.00;8.43;;;9.40;50.90;;;;;;5004134;28;20030;-60
2021/03/26 09:23:36;;;;;;;12.43;8.73;;;9.40;51.20;;;;;;5006072;28;20037;-58
2021/03/26 09:26:40;;;;;;;11.68;8.02;;;9.50;51.00;;;;;;5001675;28;20789;-58
2021/03/26 09:29:14;;;;;;;11.85;8.10;;;9.50;50.90;;;;;;5002214;28;20041;-58
2021/03/26 09:31:49;;;;;;;12.50;7.85;;;9.50;50.90;;;;;;5002251;28;20038;-58
2021/03/26 09:34:23;;;;;;;12.02;8.68;;;9.50;50.90;;;;;;5007043;28;20029;-58
2021/03/26 09:37:08;;;;;;;10.35;6.97;;;9.60;51.00;;;;;;5010136;28;20103;-59
2021/03/26 09:39:36;;;;;;;10.85;7.15;;;9.60;50.90;;;;;;5008099;28;20052;-59
2021/03/26 09:42:32;;;;;;;9.77;6.90;;;9.70;51.10;;;;;;5007069;28;20029;-60
2021/03/26 09:45:31;;;;;;;10.05;7.07;;;9.70;50.90;;;;;;5002528;28;20845;-59
2021/03/26 09:48:28;;;;;;;10.10;6.60;;;9.80;51.10;;;;;;5003829;28;20049;-60
2021/03/26 09:51:18;;;;;;;11.20;7.30;;;9.80;51.30;;;;;;5005126;28;20026;-58
2021/03/26 09:53:45;;;;;;;9.60;6.57;;;9.70;51.70;;;;;;5000078;28;20026;-60
2021/03/26 09:56:27;;;;;;;10.18;7.50;;;9.80;52.10;;;;;;4999807;28;20144;-60
2021/03/26 09:59:13;;;;;;;10.18;7.20;;;9.80;52.20;;;;;;5001153;28;20103;-60
2021/03/26 10:01:49;;;;;;;12.52;7.40;;;9.80;52.50;;;;;;4999487;28;20062;-59
2021/03/26 10:04:19;;;;;;;10.88;7.03;;;9.70;52.80;;;;;;5003064;28;20121;-58
2021/03/26 10:07:02;;;;;;;8.98;6.40;;;9.80;53.00;;;;;;5003093;28;20083;-60
2021/03/26 10:09:50;;;;;;;8.73;6.60;;;9.80;53.00;;;;;;5001836;28;20036;-60
2021/03/26 10:12:18;;;;;;;9.43;6.63;;;9.80;53.10;;;;;;5004498;28;20037;-59
2021/03/26 10:14:49;;;;;;;8.77;5.85;;;9.80;53.30;;;;;;5000426;28;20069;-59
2021/03/26 10:17:49;;;;;;;8.00;5.03;;;9.80;53.40;;;;;;4995922;28;20030;-59
2021/03/26 10:20:18;;;;;;;7.65;4.85;;;9.80;53.30;;;;;;4999488;28;20522;-61
2021/03/26 10:22:59;;;;;;;7.07;4.80;;;9.80;53.30;;;;;;4998630;28;20041;-59
2021/03/26 10:25:51;;;;;;;8.43;4.50;;;9.90;53.20;;;;;;5002449;28;20081;-58
2021/03/26 10:28:32;;;;;;;6.15;4.22;;;9.90;53.10;;;;;;4997474;28;20033;-59
2021/03/26 10:31:32;;;;;;;5.68;3.97;;;9.90;53.70;;;;;;5000332;28;20115;-58
2021/03/26 10:34:01;;;;;;;6.43;4.20;;;10.00;53.00;;;;;;5007153;28;20017;-59
2021/03/26 10:36:41;;;;;;;6.22;3.72;;;10.00;53.20;;;;;;5002887;28;20088;-59
2021/03/26 10:39:09;;;;;;;5.40;3.22;;;10.10;53.00;;;;;;5004961;28;20034;-61
2021/03/26 10:41:44;;;;;;;5.35;3.50;;;10.10;53.10;;;;;;5001382;28;20545;-58
2021/03/26 10:44:34;;;;;;;6.43;3.63;;;10.10;53.10;;;;;;5001531;28;20574;-58
2021/03/26 10:47:12;;;;;;;5.82;3.70;;;10.10;52.90;;;;;;4998171;28;20041;-58
2021/03/26 10:49:53;;;;;;;6.07;3.63;;;10.10;52.90;;;;;;5000039;28;20109;-59
2021/03/26 10:52:45;;;;;;;5.55;3.47;;;10.20;53.00;;;;;;5003620;28;20033;-59
2021/03/26 10:55:14;;;;;;;;;;;10.20;53.20;;;;;;5004442;28;20550;-58
2021/03/26 10:57:57;;;;;;;4.53;3.38;;;10.10;53.40;;;;;;5002154;28;21094;-58
2021/03/26 11:00:38;;;;;;;5.45;3.70;;;10.10;53.50;;;;;;4997982;28;20030;-59
2021/03/26 11:03:16;;;;;;;3.97;3.13;;;10.10;53.60;;;;;;4996261;28;20034;-59
2021/03/26 11:05:51;;;;;;;4.43;3.13;;;10.10;53.50;;;;;;5005321;28;20758;-59
2021/03/26 11:08:29;;;;;;;4.38;3.08;;;10.20;53.50;;;;;;5007364;28;20037;-60
2021/03/26 11:11:10;;;;;;;4.57;3.28;;;10.20;53.80;;;;;;4990782;28;20641;-59
2021/03/26 11:13:47;;;;;;;4.97;3.78;;;10.20;53.60;;;;;;5001776;28;20071;-58
2021/03/26 11:16:20;;;;;;;4.93;3.33;;;10.20;53.50;;;;;;5005912;28;20030;-58
2021/03/26 11:19:22;;;;;;;6.10;3.88;;;10.20;53.30;;;;;;5008988;28;20791;-59
2021/03/26 11:21:51;;;;;;;4.63;3.13;;;10.20;53.40;;;;;;5006448;28;20115;-58
2021/03/26 11:24:17;;;;;;;4.13;3.03;;;10.20;53.20;;;;;;5009844;28;20030;-58
2021/03/26 11:26:54;;;;;;;4.78;2.97;;;10.30;53.20;;;;;;5006833;28;20890;-59
2021/03/26 11:29:38;;;;;;;3.72;3.08;;;10.40;53.20;;;;;;5018881;28;20117;-59
2021/03/26 11:32:14;;;;;;;4.75;3.05;;;10.40;53.00;;;;;;5006634;28;20033;-59
2021/03/26 11:34:59;;;;;;;3.85;3.30;;;10.50;53.00;;;;;;5003502;28;20030;-58
2021/03/26 11:37:52;;;;;;;4.60;3.03;;;10.50;53.00;;;;;;5009648;28;20040;-59
2021/03/26 11:40:32;;;;;;;4.25;3.10;;;10.50;52.80;;;;;;5011481;28;20029;-60
2021/03/26 11:43:15;;;;;;;6.28;3.30;;;10.50;52.70;;;;;;5009225;28;20037;-56
2021/03/26 11:45:48;;;;;;;4.47;3.30;;;10.60;52.60;;;;;;5005902;28;20805;-61
2021/03/26 11:48:23;;;;;;;4.53;3.25;;;10.60;52.60;;;;;;4999591;28;20049;-59
2021/03/26 11:50:49;;;;;;;5.05;3.25;;;10.60;52.40;;;;;;4992497;28;20438;-60
2021/03/26 11:53:28;;;;;;;4.43;2.80;;;10.60;52.50;;;;;;4986518;28;20116;-59
2021/03/26 11:56:08;;;;;;;3.28;2.63;;;10.50;52.40;;;;;;5004917;28;20028;-60
2021/03/26 11:58:58;;;;;;;5.38;3.40;;;10.60;52.40;;;;;;4999852;28;20041;-58
2021/03/26 12:01:29;;;;;;;5.88;3.65;;;10.60;52.50;;;;;;5005353;28;20516;-59
2021/03/26 12:04:36;;;;;;;4.82;3.50;;;10.60;52.50;;;;;;4999396;28;21805;-59
2021/03/26 12:07:21;;;;;;;4.85;3.20;;;10.60;52.80;;;;;;5026842;28;20036;-56
2021/03/26 12:09:56;;;;;;;3.95;3.05;;;10.60;52.40;;;;;;5001292;28;20148;-59
2021/03/26 12:12:45;;;;;;;4.35;3.45;;;10.60;53.00;;;;;;4994828;28;20022;-59
2021/03/26 12:15:19;;;;;;;4.70;3.05;;;10.50;52.10;;;;;;5001209;28;20033;-59
2021/03/26 12:18:10;;;;;;;3.63;2.50;;;10.60;52.10;;;;;;5004536;28;20026;-59
2021/03/26 12:20:38;;;;;;;3.30;2.65;;;10.60;52.00;;;;;;5001586;28;22364;-59
2021/03/26 12:23:32;;;;;;;3.40;2.78;;;10.50;51.80;;;;;;5002000;28;20029;-57
2021/03/26 12:26:29;;;;;;;4.68;3.10;;;10.50;52.00;;;;;;5005949;28;20053;-59
2021/03/26 12:28:55;;;;;;;6.15;2.78;;;10.50;52.00;;;;;;4997335;28;20125;-59
2021/03/26 12:31:37;;;;;;;7.80;3.00;;;10.40;52.20;;;;;;5006540;28;20116;-58
2021/03/26 12:34:17;;;;;;;3.22;2.80;;;10.40;52.10;;;;;;5006847;28;20685;-59
2021/03/26 12:37:06;;;;;;;3.08;2.67;;;10.40;52.00;;;;;;4998697;28;20029;-59
2021/03/26 12:39:38;;;;;;;4.57;2.97;;;10.50;52.20;;;;;;5002809;28;20033;-59
2021/03/26 12:42:28;;;;;;;3.63;3.05;;;10.50;52.20;;;;;;5002485;28;20045;-58
2021/03/26 12:45:33;;;;;;;3.72;3.13;;;10.50;52.30;;;;;;5005043;28;20030;-59
2021/03/26 12:48:06;;;;;;;5.25;3.97;;;10.40;52.60;;;;;;5004783;28;20047;-58
2021/03/26 12:50:48;;;;;;;4.07;3.25;;;10.40;52.60;;;;;;5006265;28;20058;-59
2021/03/26 12:53:55;;;;;;;5.50;3.60;;;10.40;52.80;;;;;;5001909;28;20622;-59
2021/03/26 12:56:33;;;;;;;5.18;3.42;;;10.40;52.90;;;;;;5004599;28;20497;-58
2021/03/26 12:59:05;;;;;;;4.70;3.13;;;10.40;53.00;;;;;;5005544;28;20145;-58
2021/03/26 13:01:40;;;;;;;3.78;3.13;;;10.40;53.00;;;;;;5001728;28;20041;-59
2021/03/26 13:04:46;;;;;;;4.00;3.22;;;10.40;53.00;;;;;;5005646;28;20072;-58
2021/03/26 13:07:38;;;;;;;5.65;3.47;;;10.50;53.10;;;;;;5006779;28;20030;-58
2021/03/26 13:10:21;;;;;;;;;;;10.50;53.20;;;;;;5008079;28;20052;-58
2021/03/26 13:12:49;;;;;;;5.78;3.83;;;10.40;53.30;;;;;;5006102;28;19913;-59
2021/03/26 13:15:22;;;;;;;5.55;4.00;;;10.40;53.30;;;;;;4993934;28;20030;-59
2021/03/26 13:17:49;;;;;;;6.03;4.45;;;10.40;53.50;;;;;;5002487;28;20172;-58
2021/03/26 13:20:18;;;;;;;6.22;4.28;;;10.40;53.40;;;;;;4996871;28;20036;-60
2021/03/26 13:22:46;;;;;;;4.88;4.07;;;10.40;53.60;;;;;;5007416;28;20026;-58
2021/03/26 13:25:56;;;;;;;6.15;4.15;;;10.50;53.70;;;;;;5010956;28;20041;-58
2021/03/26 13:28:26;;;;;;;5.43;3.75;;;10.50;53.60;;;;;;5009381;28;20088;-59
2021/03/26 13:30:55;;;;;;;6.47;3.65;;;10.50;53.50;;;;;;5008519;28;20030;-58
2021/03/26 13:33:57;;;;;;;5.50;3.58;;;10.50;53.40;;;;;;5005152;28;20034;-59
2021/03/26 13:36:31;;;;;;;5.25;3.50;;;10.50;53.10;;;;;;5010003;28;20026;-58
2021/03/26 13:39:14;;;;;;;5.28;3.75;;;10.50;52.80;;;;;;5003886;28;20555;-58
2021/03/26 13:41:49;;;;;;;5.97;3.63;;;10.50;52.90;;;;;;5004214;28;20041;-60
2021/03/26 13:44:53;;;;;;;5.95;3.80;;;10.50;52.80;;;;;;5001846;28;20698;-59
2021/03/26 13:47:22;;;;;;;4.95;3.97;;;10.50;52.60;;;;;;5010541;28;20029;-60